Time;durP1;ratioP1;P1;durP2;ratioP2;P2;SDS_P1;SDS_P2;PMS_P1;PMS_P2;Temp;Humidity;BMP_temperature;BMP_pressure;BME280_temperature;BME280_humidity;BME280_pressure;Samples;Min_cycle;Max_cycle;Signal;HPM_P1;HPM_P2
2023/08/15 00:01:58;;;;;;;9.73;5.60;;;20.00;99.90;;;;;;4942057;29;20284;-80
2023/08/15 00:04:24;;;;;;;7.82;5.75;;;20.00;99.90;;;;;;4942859;29;20186;-80
2023/08/15 00:06:49;;;;;;;9.90;5.43;;;19.90;99.90;;;;;;4943074;29;20201;-79
2023/08/15 00:09:15;;;;;;;8.50;5.47;;;19.90;99.90;;;;;;4943117;29;20181;-80
2023/08/15 00:11:41;;;;;;;5.93;5.32;;;19.80;99.90;;;;;;4942516;29;20277;-80
2023/08/15 00:14:07;;;;;;;8.10;5.50;;;19.80;99.90;;;;;;4942553;29;20177;-80
2023/08/15 00:16:32;;;;;;;7.00;5.82;;;19.70;99.90;;;;;;4942813;29;20241;-80
2023/08/15 00:18:58;;;;;;;6.70;5.20;;;19.80;99.90;;;;;;4942610;29;20257;-80
2023/08/15 00:21:23;;;;;;;6.68;5.10;;;19.70;99.90;;;;;;4942604;29;20223;-80
2023/08/15 00:23:49;;;;;;;10.32;5.85;;;19.70;99.90;;;;;;4943356;29;20190;-79
2023/08/15 00:26:14;;;;;;;8.93;5.40;;;19.60;99.90;;;;;;4943145;29;20198;-80
2023/08/15 00:28:40;;;;;;;9.60;5.50;;;19.60;99.90;;;;;;4942528;29;20188;-80
2023/08/15 00:31:06;;;;;;;6.03;5.13;;;19.60;99.90;;;;;;4942576;29;20640;-80
2023/08/15 00:33:32;;;;;;;8.32;5.93;;;19.60;99.90;;;;;;4959656;29;20178;-80
2023/08/15 00:35:57;;;;;;;6.38;5.50;;;19.60;99.90;;;;;;4942153;29;20205;-80
2023/08/15 00:38:23;;;;;;;6.60;4.82;;;19.60;99.90;;;;;;4942355;29;20201;-80
2023/08/15 00:40:49;;;;;;;8.90;5.75;;;19.60;99.90;;;;;;4942311;29;20555;-80
2023/08/15 00:43:17;;;;;;;10.25;5.57;;;19.60;99.90;;;;;;4942521;29;20514;-80
2023/08/15 00:45:43;;;;;;;6.45;5.90;;;19.50;99.90;;;;;;4942364;28;20648;-79
2023/08/15 00:48:10;;;;;;;8.30;6.43;;;19.40;99.90;;;;;;4942012;29;20186;-79
2023/08/15 00:50:37;;;;;;;7.90;5.65;;;19.40;99.90;;;;;;4942237;29;20185;-79
2023/08/15 00:53:04;;;;;;;7.88;5.78;;;19.30;99.90;;;;;;4942241;29;20213;-79
2023/08/15 00:55:31;;;;;;;9.45;5.68;;;19.30;99.90;;;;;;4941443;28;20739;-79
2023/08/15 00:57:57;;;;;;;9.77;5.97;;;19.30;99.90;;;;;;4959235;29;20254;-79
2023/08/15 10:57:56;;;;;;;28.30;25.48;;;28.70;97.70;;;;;;4964009;28;20212;-80
2023/08/15 11:00:22;;;;;;;20.60;18.67;;;29.00;97.30;;;;;;4959292;28;20223;-80
2023/08/15 11:02:50;;;;;;;8.38;7.57;;;29.20;98.10;;;;;;4943436;29;20213;-80
2023/08/15 11:05:22;;;;;;;7.40;6.35;;;29.30;97.70;;;;;;4960963;29;20165;-80
2023/08/15 11:08:22;;;;;;;5.85;5.35;;;29.50;97.80;;;;;;4939526;29;20197;-79
2023/08/15 11:10:49;;;;;;;8.00;7.20;;;29.50;98.10;;;;;;4942265;29;20172;-81
2023/08/15 11:13:15;;;;;;;9.80;7.93;;;29.80;96.00;;;;;;4949007;29;20186;-81
2023/08/15 11:15:42;;;;;;;16.35;14.80;;;30.00;95.60;;;;;;4948689;29;20264;-81
2023/08/15 11:18:07;;;;;;;10.15;8.73;;;30.00;95.70;;;;;;4932990;29;20709;-81
2023/08/15 11:20:33;;;;;;;12.65;8.95;;;30.10;96.70;;;;;;4948179;29;20178;-81
2023/08/15 11:23:00;;;;;;;8.80;7.90;;;30.20;96.20;;;;;;4947484;29;20233;-82
2023/08/15 11:25:26;;;;;;;8.52;6.90;;;30.20;96.00;;;;;;4948594;29;20251;-81
2023/08/15 11:27:51;;;;;;;14.57;8.65;;;30.00;96.40;;;;;;4950258;29;20174;-81
2023/08/15 11:30:18;;;;;;;9.23;4.90;;;29.80;96.90;;;;;;4948518;29;20186;-81
2023/08/15 11:32:44;;;;;;;7.13;4.63;;;29.60;97.20;;;;;;4947081;29;20181;-81
2023/08/15 11:35:10;;;;;;;5.82;4.28;;;29.50;98.40;;;;;;4948501;29;20249;-81
2023/08/15 11:37:36;;;;;;;7.70;4.68;;;29.60;95.50;;;;;;4946351;29;20203;-80
2023/08/15 11:40:03;;;;;;;7.00;4.75;;;29.80;96.50;;;;;;4947364;29;20217;-80
2023/08/15 11:42:29;;;;;;;7.07;4.25;;;29.90;95.60;;;;;;4948086;29;20177;-80
2023/08/15 11:45:24;;;;;;;5.60;4.00;;;29.90;95.00;;;;;;4947688;29;20174;-80
2023/08/15 11:47:58;;;;;;;6.07;3.90;;;29.80;95.20;;;;;;4949113;29;20183;-81
2023/08/15 11:50:28;;;;;;;6.35;4.00;;;29.60;94.40;;;;;;4947326;29;20660;-81
2023/08/15 11:53:18;;;;;;;4.30;3.80;;;29.50;95.30;;;;;;4947617;29;20173;-80
2023/08/15 11:55:47;;;;;;;4.82;3.78;;;29.30;96.20;;;;;;4947723;29;20205;-80
2023/08/15 11:58:27;;;;;;;6.10;4.07;;;29.10;96.00;;;;;;4932323;29;20205;-80
2023/08/15 12:01:01;;;;;;;5.10;3.60;;;29.00;96.90;;;;;;4946696;29;20188;-80
2023/08/15 12:03:26;;;;;;;6.32;3.60;;;29.10;96.60;;;;;;4947061;29;20197;-80
2023/08/15 12:06:02;;;;;;;6.82;3.97;;;29.00;96.90;;;;;;4945478;29;20204;-81
2023/08/15 12:08:29;;;;;;;5.10;3.70;;;29.00;97.10;;;;;;4930021;29;20652;-81
2023/08/15 12:10:57;;;;;;;5.80;4.07;;;28.90;97.50;;;;;;4943236;29;20268;-80
2023/08/15 12:13:40;;;;;;;5.28;3.50;;;29.00;97.50;;;;;;4944115;29;20177;-81
2023/08/15 12:16:07;;;;;;;5.30;3.75;;;29.10;96.80;;;;;;4945769;29;20208;-80
2023/08/15 12:18:35;;;;;;;8.80;4.00;;;29.30;97.10;;;;;;4942550;29;20216;-79
2023/08/15 12:21:03;;;;;;;4.05;3.70;;;29.50;97.40;;;;;;4940092;29;20261;-79
2023/08/15 12:23:45;;;;;;;5.05;3.55;;;29.60;96.00;;;;;;4938474;29;20170;-79
2023/08/15 12:26:15;;;;;;;5.57;3.85;;;29.70;95.90;;;;;;4938372;29;20201;-79
2023/08/15 12:28:40;;;;;;;7.57;3.83;;;29.70;95.90;;;;;;4939222;29;20182;-79
2023/08/15 12:31:12;;;;;;;4.45;3.60;;;29.50;95.80;;;;;;4940121;29;20180;-79
2023/08/15 12:33:38;;;;;;;3.35;3.00;;;29.70;95.00;;;;;;4939458;29;20221;-79
2023/08/15 12:36:03;;;;;;;5.40;3.38;;;29.90;95.10;;;;;;4941555;29;20201;-79
2023/08/15 12:38:29;;;;;;;4.60;3.38;;;29.90;95.20;;;;;;4941871;29;20304;-79
2023/08/15 12:40:55;;;;;;;5.55;2.70;;;30.00;94.50;;;;;;4941900;29;20174;-79
2023/08/15 12:43:23;;;;;;;4.95;3.28;;;30.10;94.80;;;;;;4940860;29;20186;-79
2023/08/15 12:45:54;;;;;;;3.20;2.90;;;30.20;94.40;;;;;;4940601;29;20202;-79
2023/08/15 12:48:20;;;;;;;4.50;2.95;;;30.40;94.10;;;;;;4941334;29;20200;-79
2023/08/15 12:50:45;;;;;;;5.80;3.00;;;30.80;92.80;;;;;;4942287;29;20178;-79
2023/08/15 12:53:12;;;;;;;3.05;2.65;;;31.00;92.20;;;;;;4940610;29;20185;-79
2023/08/15 12:55:38;;;;;;;4.28;2.80;;;31.00;92.10;;;;;;4938169;29;20185;-79
2023/08/15 12:58:04;;;;;;;3.35;2.90;;;30.80;90.60;;;;;;4938879;29;20205;-79
2023/08/15 13:00:31;;;;;;;2.80;2.60;;;30.70;92.40;;;;;;4938571;29;20598;-79
2023/08/15 13:02:58;;;;;;;2.40;2.10;;;30.50;91.60;;;;;;4939165;29;20284;-79
2023/08/15 13:05:23;;;;;;;2.88;2.67;;;30.50;89.40;;;;;;4938628;29;20177;-79
2023/08/15 13:07:55;;;;;;;3.20;2.50;;;30.50;89.90;;;;;;4938263;29;20178;-79
2023/08/15 13:10:25;;;;;;;2.90;2.38;;;30.30;90.80;;;;;;4937871;29;20182;-78
2023/08/15 13:12:50;;;;;;;4.85;2.63;;;30.20;87.70;;;;;;4936776;29;20613;-79
2023/08/15 13:15:18;;;;;;;5.95;2.60;;;30.00;88.90;;;;;;4938911;29;20197;-79
2023/08/15 13:17:54;;;;;;;4.30;2.88;;;29.90;89.70;;;;;;4937047;29;20197;-79
2023/08/15 13:20:19;;;;;;;2.50;2.10;;;29.80;91.10;;;;;;4937500;29;20220;-79
2023/08/15 13:22:46;;;;;;;2.85;2.40;;;29.70;90.80;;;;;;4936728;29;20668;-79
2023/08/15 13:25:12;;;;;;;2.20;2.05;;;29.70;90.10;;;;;;4938951;29;20261;-79
2023/08/15 13:27:38;;;;;;;5.95;3.00;;;29.70;88.80;;;;;;4939086;29;20197;-79
2023/08/15 13:30:27;;;;;;;2.92;2.70;;;29.80;89.00;;;;;;4938316;29;20187;-79
2023/08/15 13:32:53;;;;;;;3.15;2.80;;;29.90;85.90;;;;;;4936886;29;20228;-80
2023/08/15 13:35:22;;;;;;;4.30;2.75;;;30.00;87.20;;;;;;4937240;29;20265;-80
2023/08/15 13:37:48;;;;;;;6.53;2.97;;;30.20;88.70;;;;;;4937896;29;20263;-80
2023/08/15 13:40:22;;;;;;;3.88;2.80;;;30.30;89.00;;;;;;4936990;29;20716;-81
2023/08/15 13:42:48;;;;;;;6.10;2.70;;;30.40;87.90;;;;;;4937784;29;20170;-80
2023/08/15 13:45:14;;;;;;;3.20;2.70;;;30.50;87.70;;;;;;4937637;29;20263;-80
2023/08/15 13:47:40;;;;;;;4.40;3.00;;;30.60;88.20;;;;;;4937921;29;20249;-80
2023/08/15 13:50:06;;;;;;;5.78;2.88;;;30.80;87.50;;;;;;4937117;29;20173;-82
2023/08/15 13:52:32;;;;;;;3.63;2.83;;;30.80;86.60;;;;;;4936888;29;20608;-81
2023/08/15 13:54:58;;;;;;;3.47;2.50;;;30.80;87.30;;;;;;4936410;29;20181;-81
2023/08/15 13:57:23;;;;;;;4.20;2.88;;;30.90;86.80;;;;;;4937444;29;20217;-80
2023/08/15 13:59:49;;;;;;;3.35;3.03;;;30.80;87.90;;;;;;4936933;29;20235;-80
2023/08/15 14:02:14;;;;;;;4.57;2.75;;;30.70;86.60;;;;;;4936397;29;20208;-80
2023/08/15 14:04:40;;;;;;;5.80;3.10;;;30.50;86.50;;;;;;4936622;29;20247;-80
2023/08/15 14:07:06;;;;;;;4.80;2.63;;;30.40;86.50;;;;;;4936228;29;20189;-81
2023/08/15 14:09:32;;;;;;;3.92;2.50;;;30.40;85.30;;;;;;4936984;29;20229;-81
2023/08/15 14:11:58;;;;;;;3.53;2.70;;;30.50;85.50;;;;;;4938918;29;20194;-81
2023/08/15 14:14:23;;;;;;;3.58;2.85;;;30.70;82.70;;;;;;4940098;29;20174;-81
2023/08/15 14:16:50;;;;;;;3.25;2.53;;;30.70;83.20;;;;;;4939855;29;20203;-82
2023/08/15 14:19:17;;;;;;;4.30;2.58;;;30.60;83.90;;;;;;4939393;29;20209;-82
2023/08/15 14:21:45;;;;;;;4.20;2.70;;;30.50;84.60;;;;;;4939467;29;20158;-82
2023/08/15 14:24:12;;;;;;;3.83;2.42;;;30.30;86.10;;;;;;4940076;29;20695;-82
2023/08/15 14:26:49;;;;;;;3.60;2.60;;;30.30;85.40;;;;;;4940141;29;20201;-82
2023/08/15 14:29:18;;;;;;;3.60;2.63;;;30.20;86.60;;;;;;4940131;29;20189;-82
2023/08/15 14:31:46;;;;;;;3.42;2.35;;;30.10;87.50;;;;;;4940485;29;20181;-81
2023/08/15 14:34:15;;;;;;;5.40;2.78;;;30.20;87.50;;;;;;4940724;29;20574;-81
2023/08/15 14:36:43;;;;;;;5.18;2.65;;;30.30;87.00;;;;;;4939731;29;20627;-81
2023/08/15 14:39:13;;;;;;;3.45;2.65;;;30.30;87.60;;;;;;4937207;29;20248;-81
2023/08/15 14:41:49;;;;;;;3.60;2.70;;;30.10;90.10;;;;;;4939561;29;20629;-81
2023/08/15 14:44:16;;;;;;;5.32;2.83;;;30.10;89.80;;;;;;4939067;29;20181;-81
2023/08/15 14:46:47;;;;;;;2.60;2.40;;;30.00;87.70;;;;;;4939571;29;20201;-81
2023/08/15 14:49:12;;;;;;;2.80;2.55;;;30.30;87.80;;;;;;4940598;29;20563;-81
2023/08/15 14:51:41;;;;;;;3.28;2.78;;;30.40;88.50;;;;;;4938978;29;20237;-81
2023/08/15 14:54:07;;;;;;;4.63;2.75;;;30.40;87.10;;;;;;4938782;29;20174;-81
2023/08/15 14:56:32;;;;;;;4.47;2.72;;;30.30;88.10;;;;;;4939549;29;20273;-80
2023/08/15 14:58:58;;;;;;;3.15;2.80;;;30.10;87.80;;;;;;4940272;29;20205;-80
2023/08/15 15:01:25;;;;;;;2.78;2.58;;;29.80;89.70;;;;;;4940754;29;20174;-79
2023/08/15 15:03:54;;;;;;;2.58;2.42;;;29.50;90.20;;;;;;4940569;29;20181;-79
2023/08/15 15:06:21;;;;;;;5.35;3.00;;;29.40;90.20;;;;;;4939380;29;20291;-82
2023/08/15 15:08:47;;;;;;;7.68;2.97;;;29.40;90.80;;;;;;4943431;29;20618;-80
2023/08/15 15:11:12;;;;;;;4.43;2.60;;;29.60;90.40;;;;;;4943780;29;20184;-79
2023/08/15 15:13:38;;;;;;;5.20;2.65;;;29.70;88.90;;;;;;4943309;29;20170;-79
2023/08/15 15:16:04;;;;;;;3.30;3.00;;;29.90;87.70;;;;;;4943971;29;20197;-80
2023/08/15 15:18:34;;;;;;;6.53;2.67;;;29.90;88.50;;;;;;4942916;29;20212;-86
2023/08/15 15:21:00;;;;;;;4.68;2.70;;;29.60;89.20;;;;;;4941888;29;20170;-81
2023/08/15 15:23:25;;;;;;;4.50;2.80;;;29.50;90.40;;;;;;4942272;29;20188;-80
2023/08/15 15:25:52;;;;;;;4.40;2.78;;;29.60;90.30;;;;;;4941576;29;20205;-80
2023/08/15 15:28:18;;;;;;;8.38;3.22;;;29.70;90.00;;;;;;4942513;29;20234;-79
2023/08/15 15:30:43;;;;;;;5.18;2.60;;;29.80;89.80;;;;;;4941657;29;20213;-79
2023/08/15 15:33:09;;;;;;;6.20;3.00;;;29.50;89.60;;;;;;4940863;29;20178;-80
2023/08/15 15:35:34;;;;;;;5.75;3.08;;;29.20;88.70;;;;;;4941444;29;20189;-79
2023/08/15 15:38:00;;;;;;;5.07;2.78;;;28.90;89.80;;;;;;4941640;29;20178;-80
2023/08/15 15:40:25;;;;;;;7.85;2.88;;;28.70;90.70;;;;;;4941172;29;20182;-79
2023/08/15 15:42:51;;;;;;;3.80;2.90;;;28.50;91.00;;;;;;4941479;29;20555;-79
2023/08/15 15:45:16;;;;;;;3.30;3.00;;;28.30;91.30;;;;;;4942048;29;20170;-79
2023/08/15 15:47:42;;;;;;;9.77;3.03;;;28.20;91.50;;;;;;4942217;29;20337;-79
2023/08/15 15:50:08;;;;;;;6.78;3.03;;;28.10;91.40;;;;;;4942408;29;20206;-79
2023/08/15 15:52:33;;;;;;;3.92;2.92;;;28.00;92.20;;;;;;4942087;29;20182;-79
2023/08/15 15:54:59;;;;;;;8.18;3.45;;;27.90;92.10;;;;;;4941418;29;20193;-79
2023/08/15 15:57:24;;;;;;;7.15;3.35;;;27.80;92.40;;;;;;4941010;29;20220;-79
2023/08/15 15:59:50;;;;;;;5.55;3.10;;;27.80;92.20;;;;;;4941536;29;20213;-79
2023/08/15 16:02:15;;;;;;;7.07;3.60;;;27.70;92.00;;;;;;4941318;29;20203;-79
2023/08/15 16:04:46;;;;;;;4.95;3.10;;;27.70;92.60;;;;;;4942037;29;20629;-79
2023/08/15 16:07:13;;;;;;;3.70;3.40;;;27.70;92.10;;;;;;4941221;29;20780;-80
2023/08/15 16:09:38;;;;;;;4.03;3.17;;;27.60;92.40;;;;;;4942021;29;20537;-80
2023/08/15 16:12:04;;;;;;;5.57;3.92;;;27.40;92.40;;;;;;4940757;29;20182;-79
2023/08/15 16:14:29;;;;;;;7.20;3.70;;;27.30;93.00;;;;;;4941151;29;20186;-79
2023/08/15 16:16:55;;;;;;;4.03;3.40;;;27.30;93.30;;;;;;4941879;29;20206;-79
2023/08/15 16:19:20;;;;;;;3.65;3.20;;;27.30;93.20;;;;;;4941151;29;20214;-79
2023/08/15 16:21:46;;;;;;;4.97;3.33;;;27.20;93.50;;;;;;4940857;29;20184;-79
2023/08/15 16:24:11;;;;;;;4.45;3.53;;;27.20;93.70;;;;;;4941641;29;20174;-79
2023/08/15 16:26:37;;;;;;;5.18;3.50;;;27.10;93.80;;;;;;4941485;29;20695;-79
2023/08/15 16:29:03;;;;;;;8.68;3.70;;;27.10;94.30;;;;;;4942194;29;20573;-80
2023/08/15 16:31:28;;;;;;;6.28;3.67;;;27.10;94.70;;;;;;4941710;29;20229;-79
2023/08/15 16:33:54;;;;;;;4.13;3.40;;;27.10;94.80;;;;;;4941625;29;20186;-79
2023/08/15 16:36:19;;;;;;;4.80;3.58;;;27.10;94.80;;;;;;4940686;29;20202;-79
2023/08/15 16:38:45;;;;;;;8.10;3.80;;;27.10;95.20;;;;;;4940438;29;20197;-79
2023/08/15 16:41:11;;;;;;;6.63;3.75;;;27.10;95.10;;;;;;4940344;29;20559;-79
2023/08/15 16:43:37;;;;;;;7.18;3.90;;;27.10;95.60;;;;;;4940228;29;20193;-79
2023/08/15 16:46:02;;;;;;;3.95;3.65;;;27.00;96.10;;;;;;4940252;29;20198;-80
2023/08/15 16:48:28;;;;;;;4.88;3.97;;;26.90;96.20;;;;;;4923800;29;20185;-80
2023/08/15 16:50:54;;;;;;;7.05;4.15;;;26.80;96.30;;;;;;4923924;29;20630;-80
2023/08/15 16:53:19;;;;;;;5.50;3.97;;;26.80;96.20;;;;;;4924021;29;20285;-80
2023/08/15 16:55:45;;;;;;;6.07;3.80;;;26.90;96.60;;;;;;4924321;29;20681;-80
2023/08/15 16:58:11;;;;;;;5.68;4.00;;;26.90;96.60;;;;;;4925183;29;20209;-80
2023/08/15 17:00:37;;;;;;;5.38;3.35;;;26.90;96.90;;;;;;4923731;29;20189;-80
2023/08/15 17:03:03;;;;;;;5.25;3.60;;;26.90;96.90;;;;;;4923865;29;20178;-80
2023/08/15 17:05:29;;;;;;;5.85;3.95;;;26.90;96.90;;;;;;4924078;29;20716;-81
2023/08/15 17:07:54;;;;;;;5.15;3.55;;;26.80;97.10;;;;;;4939924;29;20194;-81
2023/08/15 17:10:20;;;;;;;6.28;3.90;;;26.70;97.40;;;;;;4941228;29;20179;-81
2023/08/15 17:12:47;;;;;;;5.82;3.90;;;26.60;97.50;;;;;;4923697;29;20178;-81
2023/08/15 17:15:14;;;;;;;6.35;4.13;;;26.60;97.50;;;;;;4924183;29;20190;-81
2023/08/15 17:17:40;;;;;;;4.25;3.67;;;26.50;97.70;;;;;;4923645;29;20202;-81
2023/08/15 17:20:06;;;;;;;4.90;3.67;;;26.40;98.00;;;;;;4923738;29;20202;-81
2023/08/15 17:22:32;;;;;;;5.28;3.60;;;26.40;98.40;;;;;;4923557;29;20174;-81
2023/08/15 17:24:58;;;;;;;5.15;3.45;;;26.20;98.60;;;;;;4940966;29;20233;-81
2023/08/15 17:27:23;;;;;;;4.60;3.83;;;26.20;99.00;;;;;;4923408;29;20249;-81
2023/08/15 17:29:49;;;;;;;4.07;3.47;;;26.10;99.20;;;;;;4922912;29;20178;-81
2023/08/15 17:32:14;;;;;;;5.25;3.53;;;26.00;99.30;;;;;;4923076;29;20186;-81
2023/08/15 17:34:40;;;;;;;6.07;3.40;;;25.90;99.60;;;;;;4923128;29;20182;-81
2023/08/15 17:37:05;;;;;;;3.95;3.17;;;25.90;99.90;;;;;;4923032;29;20256;-81
2023/08/15 17:39:31;;;;;;;4.82;3.42;;;25.90;99.90;;;;;;4939268;29;20685;-81
2023/08/15 17:41:57;;;;;;;3.78;3.30;;;25.80;99.90;;;;;;4923187;29;20230;-82
2023/08/15 17:44:23;;;;;;;4.97;3.25;;;25.80;99.90;;;;;;4923412;29;20227;-82
2023/08/15 17:46:49;;;;;;;7.15;3.40;;;25.70;99.90;;;;;;4922899;29;20194;-82
2023/08/15 17:49:16;;;;;;;4.40;3.47;;;25.60;99.90;;;;;;4923111;29;20280;-81
2023/08/15 17:51:43;;;;;;;7.80;3.47;;;25.60;99.90;;;;;;4923073;29;20241;-81
2023/08/15 17:54:09;;;;;;;3.70;3.28;;;25.50;99.90;;;;;;4922865;29;20197;-81
2023/08/15 17:56:35;;;;;;;3.60;3.30;;;25.30;99.90;;;;;;4922653;29;20237;-81
2023/08/15 17:59:02;;;;;;;5.18;3.60;;;25.30;99.90;;;;;;4922402;29;20213;-81
2023/08/15 18:01:30;;;;;;;5.05;3.05;;;25.20;99.90;;;;;;4923162;29;20183;-81
2023/08/15 18:03:57;;;;;;;4.40;3.25;;;25.10;99.90;;;;;;4922528;29;20238;-81
2023/08/15 18:06:22;;;;;;;6.20;3.40;;;25.10;99.90;;;;;;4922693;29;20198;-81
2023/08/15 18:08:48;;;;;;;5.97;2.85;;;25.00;99.90;;;;;;4938407;29;20334;-81
2023/08/15 18:11:13;;;;;;;4.35;3.50;;;24.90;99.90;;;;;;4938156;29;20189;-81
2023/08/15 18:13:40;;;;;;;9.00;3.58;;;24.90;99.90;;;;;;4939962;29;20186;-81
2023/08/15 18:16:07;;;;;;;5.78;3.50;;;24.90;99.90;;;;;;4922320;29;20202;-81
2023/08/15 18:18:34;;;;;;;7.45;3.30;;;24.80;99.90;;;;;;4922153;29;20235;-81
2023/08/15 18:21:00;;;;;;;15.77;4.43;;;24.70;99.90;;;;;;4922863;29;20186;-81
2023/08/15 18:23:26;;;;;;;31.08;4.70;;;24.70;99.90;;;;;;4939609;29;20183;-81
2023/08/15 18:25:51;;;;;;;16.33;4.35;;;24.60;99.90;;;;;;4922777;29;20202;-81
2023/08/15 18:28:17;;;;;;;16.83;4.25;;;24.60;99.90;;;;;;4922523;29;20277;-81
2023/08/15 18:30:43;;;;;;;7.88;3.92;;;24.50;99.90;;;;;;4922457;29;20182;-81
2023/08/15 18:33:08;;;;;;;16.65;4.53;;;24.50;99.90;;;;;;4923345;29;20189;-81
2023/08/15 18:35:34;;;;;;;15.38;4.07;;;24.40;99.90;;;;;;4922577;29;20214;-81
2023/08/15 18:37:59;;;;;;;17.42;4.47;;;24.40;99.90;;;;;;4922200;29;20329;-81
2023/08/15 18:40:25;;;;;;;9.77;3.72;;;24.30;99.90;;;;;;4922336;29;20174;-81
2023/08/15 18:42:50;;;;;;;7.00;3.50;;;24.30;99.90;;;;;;4925736;29;20181;-81
2023/08/15 18:45:16;;;;;;;5.88;3.60;;;24.20;99.90;;;;;;4926666;29;20196;-81
2023/08/15 18:47:41;;;;;;;4.32;3.13;;;24.20;99.90;;;;;;4925997;29;20198;-81
2023/08/15 18:50:07;;;;;;;7.90;3.45;;;24.10;99.90;;;;;;4926213;29;20186;-80
2023/08/15 18:52:33;;;;;;;4.28;3.22;;;24.00;99.90;;;;;;4925829;29;20241;-80
2023/08/15 18:54:59;;;;;;;3.88;3.47;;;24.00;99.90;;;;;;4943314;29;20187;-79
2023/08/15 18:57:25;;;;;;;7.38;3.33;;;23.80;99.90;;;;;;4925897;29;20745;-79
2023/08/15 18:59:53;;;;;;;9.10;3.80;;;23.80;99.90;;;;;;4926158;29;20301;-79
2023/08/15 19:02:19;;;;;;;7.60;3.80;;;23.70;99.90;;;;;;4925365;29;20190;-79
2023/08/15 19:04:44;;;;;;;6.28;3.72;;;23.60;99.90;;;;;;4925207;29;20183;-79
2023/08/15 19:07:10;;;;;;;6.57;3.92;;;23.50;99.90;;;;;;4925818;29;20235;-79
2023/08/15 19:09:36;;;;;;;8.32;3.95;;;23.50;99.90;;;;;;4941148;29;20221;-79
2023/08/15 19:12:01;;;;;;;9.45;3.80;;;23.50;99.90;;;;;;4925003;29;20557;-79
2023/08/15 19:14:27;;;;;;;8.13;3.90;;;23.50;99.90;;;;;;4942475;29;20186;-79
2023/08/15 19:16:53;;;;;;;9.23;3.80;;;23.40;99.90;;;;;;4925344;29;20250;-80
2023/08/15 19:19:18;;;;;;;6.88;3.63;;;23.30;99.90;;;;;;4924868;29;20209;-80
2023/08/15 19:21:44;;;;;;;4.20;3.63;;;23.30;99.90;;;;;;4925456;29;20183;-80
2023/08/15 19:24:09;;;;;;;6.10;3.92;;;23.30;99.90;;;;;;4925016;29;20229;-81
2023/08/15 19:26:35;;;;;;;12.10;4.13;;;23.30;99.90;;;;;;4941221;29;20222;-81
2023/08/15 19:29:01;;;;;;;4.80;3.45;;;23.40;99.90;;;;;;4925844;29;20174;-81
2023/08/15 19:31:26;;;;;;;6.47;3.63;;;23.40;99.90;;;;;;4924988;29;20186;-81
2023/08/15 19:33:52;;;;;;;5.03;4.03;;;23.30;99.90;;;;;;4925218;29;20189;-81
2023/08/15 19:36:17;;;;;;;7.07;3.70;;;23.20;99.90;;;;;;4925518;29;20230;-81
2023/08/15 19:38:43;;;;;;;3.72;3.40;;;23.10;99.90;;;;;;4924589;29;20276;-81
2023/08/15 19:41:10;;;;;;;6.85;3.85;;;23.00;99.90;;;;;;4940216;29;20178;-80
2023/08/15 19:43:38;;;;;;;6.65;3.53;;;23.00;99.90;;;;;;4924815;29;20185;-81
2023/08/15 19:46:03;;;;;;;21.38;4.10;;;22.80;99.90;;;;;;4925004;29;20205;-81
2023/08/15 19:48:30;;;;;;;16.05;4.38;;;22.80;99.90;;;;;;4924885;29;20548;-81
2023/08/15 19:50:56;;;;;;;14.43;4.40;;;22.80;99.90;;;;;;4941929;29;20263;-81
2023/08/15 19:53:22;;;;;;;16.48;4.43;;;22.70;99.90;;;;;;4924483;29;20205;-80
2023/08/15 19:55:47;;;;;;;12.07;4.35;;;22.70;99.90;;;;;;4924735;29;20322;-80
2023/08/15 19:58:13;;;;;;;13.90;4.25;;;22.70;99.90;;;;;;4924168;29;20179;-81
2023/08/15 20:00:38;;;;;;;18.35;4.57;;;22.60;99.90;;;;;;4924276;29;20206;-81
2023/08/15 20:03:04;;;;;;;7.00;4.60;;;22.60;99.90;;;;;;4924474;29;20190;-81
2023/08/15 20:05:29;;;;;;;8.48;4.10;;;22.50;99.90;;;;;;4924599;29;20186;-81
2023/08/15 20:07:55;;;;;;;6.65;4.05;;;22.50;99.90;;;;;;4924122;29;20178;-81
2023/08/15 20:10:21;;;;;;;5.85;3.50;;;22.40;99.90;;;;;;4940421;29;20225;-81
2023/08/15 20:12:46;;;;;;;4.80;3.88;;;22.30;99.90;;;;;;4924408;29;20183;-81
2023/08/15 20:15:12;;;;;;;7.53;4.38;;;22.20;99.90;;;;;;4924459;29;20223;-81
2023/08/15 20:17:38;;;;;;;4.90;3.70;;;22.10;99.90;;;;;;4924023;29;20206;-81
2023/08/15 20:20:03;;;;;;;6.47;3.70;;;22.10;99.90;;;;;;4924042;29;20293;-81
2023/08/15 20:22:31;;;;;;;4.40;3.92;;;22.10;99.90;;;;;;4940480;29;20175;-81
2023/08/15 20:24:56;;;;;;;6.05;4.10;;;22.00;99.90;;;;;;4924370;29;20180;-81
2023/08/15 20:27:22;;;;;;;4.50;4.00;;;21.90;99.90;;;;;;4924336;29;20201;-81
2023/08/15 20:29:50;;;;;;;8.43;4.00;;;21.90;99.90;;;;;;4924128;29;20253;-81
2023/08/15 20:32:16;;;;;;;6.47;3.80;;;21.80;99.90;;;;;;4940651;29;20556;-81
2023/08/15 20:34:41;;;;;;;5.07;4.30;;;21.60;99.90;;;;;;4924357;29;20192;-81
2023/08/15 20:37:07;;;;;;;6.43;4.28;;;21.60;99.90;;;;;;4923301;29;20206;-81
2023/08/15 20:39:32;;;;;;;6.72;3.95;;;21.50;99.90;;;;;;4924045;29;20205;-81
2023/08/15 20:41:59;;;;;;;7.05;4.47;;;21.50;99.90;;;;;;4923650;29;20210;-81
2023/08/15 20:44:24;;;;;;;5.85;4.75;;;21.50;99.90;;;;;;4923983;29;20174;-81
2023/08/15 20:46:50;;;;;;;5.10;4.10;;;21.40;99.90;;;;;;4923055;29;20202;-81
2023/08/15 20:49:15;;;;;;;5.28;4.30;;;21.30;99.90;;;;;;4922906;29;20186;-81
2023/08/15 20:51:41;;;;;;;8.20;4.68;;;21.30;99.90;;;;;;4923484;29;20189;-81
2023/08/15 20:54:06;;;;;;;6.07;4.20;;;21.30;99.90;;;;;;4924237;29;20178;-81
2023/08/15 20:56:32;;;;;;;12.13;4.32;;;21.20;99.90;;;;;;4923088;29;20326;-81
2023/08/15 20:58:57;;;;;;;7.60;4.53;;;21.20;99.90;;;;;;4939292;29;20209;-81
2023/08/15 21:01:23;;;;;;;6.43;4.80;;;21.10;99.90;;;;;;4924143;29;20178;-81
2023/08/15 21:03:49;;;;;;;5.22;4.57;;;21.10;99.90;;;;;;4922750;29;20229;-81
2023/08/15 21:06:15;;;;;;;7.40;4.55;;;21.10;99.90;;;;;;4922996;29;20206;-81
2023/08/15 21:08:41;;;;;;;4.95;4.45;;;21.10;99.90;;;;;;4923560;29;20681;-80
2023/08/15 21:11:07;;;;;;;8.20;4.70;;;21.10;99.90;;;;;;4939592;29;20200;-80
2023/08/15 21:13:32;;;;;;;7.68;4.78;;;21.00;99.90;;;;;;4923416;29;20343;-80
2023/08/15 21:15:58;;;;;;;5.75;5.00;;;20.90;99.90;;;;;;4938572;29;20198;-80
2023/08/15 21:18:25;;;;;;;5.05;4.50;;;20.80;99.90;;;;;;4923105;29;20252;-80
2023/08/15 21:20:51;;;;;;;6.78;5.20;;;20.80;99.90;;;;;;4922949;29;20202;-80
2023/08/15 21:23:17;;;;;;;7.55;5.00;;;20.70;99.90;;;;;;4922852;29;20182;-80
2023/08/15 21:25:42;;;;;;;7.03;5.03;;;20.70;99.90;;;;;;4922205;29;20189;-80
2023/08/15 21:28:08;;;;;;;4.60;4.22;;;20.60;99.90;;;;;;4922741;29;20293;-80
2023/08/15 21:30:36;;;;;;;8.35;5.20;;;20.60;99.90;;;;;;4922909;29;20186;-80
2023/08/15 21:33:02;;;;;;;10.65;4.82;;;20.60;99.90;;;;;;4923228;29;20288;-79
2023/08/15 21:35:28;;;;;;;6.20;5.10;;;20.40;99.90;;;;;;4922574;29;20646;-80
2023/08/15 21:37:53;;;;;;;7.07;4.53;;;20.40;99.90;;;;;;4922436;29;20178;-80
2023/08/15 21:40:19;;;;;;;7.35;4.63;;;20.30;99.90;;;;;;4921892;29;20204;-80
2023/08/15 21:42:44;;;;;;;6.35;4.40;;;20.40;99.90;;;;;;4922851;29;20182;-81
2023/08/15 21:45:10;;;;;;;10.98;4.60;;;20.40;99.90;;;;;;4922392;29;20253;-80
2023/08/15 21:47:36;;;;;;;9.10;5.00;;;20.40;99.90;;;;;;4921957;29;20201;-79
2023/08/15 21:50:03;;;;;;;8.50;4.97;;;20.40;99.90;;;;;;4922386;29;20269;-79
2023/08/15 21:52:28;;;;;;;5.97;5.18;;;20.40;99.90;;;;;;4923152;29;20209;-79
2023/08/15 21:54:54;;;;;;;5.43;4.85;;;20.30;99.90;;;;;;4923851;29;20175;-79
2023/08/15 21:57:19;;;;;;;5.47;4.97;;;20.30;99.90;;;;;;4922279;29;20316;-79
2023/08/15 21:59:45;;;;;;;9.73;4.90;;;20.30;99.90;;;;;;4922452;29;20209;-79
2023/08/15 22:02:11;;;;;;;5.55;4.85;;;20.20;99.90;;;;;;4920261;29;20170;-79
2023/08/15 22:04:39;;;;;;;5.72;4.93;;;20.20;99.90;;;;;;4920783;29;20178;-79
2023/08/15 22:07:05;;;;;;;6.10;4.80;;;20.20;99.90;;;;;;4921013;29;20195;-79
2023/08/15 22:09:31;;;;;;;5.70;4.97;;;20.20;99.90;;;;;;4920113;29;20171;-79
2023/08/15 22:11:56;;;;;;;10.18;4.90;;;20.10;99.90;;;;;;4936929;29;20170;-79
2023/08/15 22:14:22;;;;;;;6.22;5.60;;;20.10;99.90;;;;;;4938094;29;20182;-79
2023/08/15 22:16:47;;;;;;;7.20;5.40;;;20.10;99.90;;;;;;4922213;29;20204;-79
2023/08/15 22:19:13;;;;;;;6.60;5.32;;;20.00;99.90;;;;;;4942149;29;20209;-79
2023/08/15 22:21:40;;;;;;;6.13;5.43;;;20.00;99.90;;;;;;4924790;29;20276;-79
2023/08/15 22:24:05;;;;;;;6.57;5.25;;;20.00;99.90;;;;;;4925148;29;20175;-79
2023/08/15 22:26:31;;;;;;;6.35;5.18;;;20.00;99.90;;;;;;4924859;29;20332;-79
2023/08/15 22:28:57;;;;;;;9.88;5.38;;;20.00;99.90;;;;;;4925423;29;20177;-79
2023/08/15 22:31:22;;;;;;;7.00;5.40;;;19.90;99.90;;;;;;4924852;29;20223;-79
2023/08/15 22:33:48;;;;;;;7.32;5.47;;;19.80;99.90;;;;;;4924888;29;20186;-79
2023/08/15 22:36:14;;;;;;;9.45;5.50;;;19.70;99.90;;;;;;4941219;29;20209;-79
2023/08/15 22:38:39;;;;;;;6.75;5.68;;;19.70;99.90;;;;;;4924239;29;20198;-79
2023/08/15 22:41:05;;;;;;;7.10;5.80;;;19.60;99.90;;;;;;4923961;29;20250;-79